LIRQ/FLR METAR and TAF weather

Enter ICAO airport designator
Station Type Date Time Source
LIRQ METAR 2019/12/08 03:50 UTC NOAA

LIRQ 080350Z 13003KT 9999 BKN025 12/11 Q1020


Station Type Date Time Source
LIRQ Decoded METAR 2019/12/08 03:50 UTC NOAA

Firenze / Peretola, Italy (LIRQ) 43-48N 011-12E 38M
Dec 07, 2019 - 10:50 PM EST / 2019.12.08 0350 UTC
Wind: from the SE (130 degrees) at 3 MPH (3 KT):0
Visibility: greater than 7 mile(s):0
Sky conditions: mostly cloudy
Temperature: 53 F (12 C)
Dew Point: 51 F (11 C)
Relative Humidity: 93%
Pressure (altimeter): 30.12 in. Hg (1020 hPa)
ob: LIRQ 080350Z 13003KT 9999 BKN025 12/11 Q1020
cycle: 4

Station Type Date Time Source
LIRQ TAF 2019/12/07 18:21 UTC NOAA

TAF LIRQ 071700Z 0718/0818 VRB05KT 9999 SCT030
TEMPO 0800/0806 3000 BR

Example: see airport list